Ordbend, California
Current Conditions -  °F | °C
As of 3:53 AM on Saturday 20 Dec 2014 (Local Time) from KOVE Reporting Station
Overcast Overcast  
Wind Chill: 53°   Ceiling: 1200
Heat Index: 53°   Visibility: 10mi
Dew Point: 49°   Wind: 12mph
Humidity: 86%   Direction: 130°SE
Pressure: 30.15"   Gusts: NA
Location:  39.6048°N, 122.032°W
Report Text: KOVE 201153Z AUTO 13010KT 10SM OVC012 12/09 A3015 RMK AO2 SLP213 70071 T01170094 10117 20111 58001
Loading
Personal Weather Stations






























Interactive Weather Map New forecast layout! Learn more

10-Day Weather Forecast

Advertisements
Track Severe Weather on mobile